Rome, NY

12:45 PM EDT on June 26, 2017 (GMT -0400)
Griffiss

Weather History for KRME - March, 2013

Change the Weather History Date:

Tuesday, March 19, 2013

  Actual Average Record
Temperature  
Mean Temperature 30 °F -  
Max Temperature 36 °F 42 °F 79 °F (2012)
Min Temperature 25 °F 22 °F -12 °F (1993)
Degree Days  
Heating Degree Days 35    
Moisture  
Dew Point 26 °F    
Average Humidity 87    
Maximum Humidity 96    
Minimum Humidity 66    
Precipitation  
Precipitation 0.28 in - - ()
Sea Level Pressure  
Sea Level Pressure 29.79 in    
Wind  
Wind Speed 14 mph (ESE)    
Max Wind Speed 23 mph    
Max Gust Speed 32 mph    
Visibility 3 miles    
Events Fog , Snow    
Averages and records for this station are not official NWS values.
T = Trace of Precipitation, MM = Missing Value Source: NWS Daily Summary

Daily Weather History Graph

Daily Weather History Graph

Search for Another Location

Airport or City:

Trip Planner

Search our weather history database for the weather conditions in past years. The results will help you decide how hot, cold, wet, or windy it might be!

Date:

Astronomy

Mar. 19, 2013 Rise Set
Actual Time 7:06 AM EDT 7:13 PM EDT
Civil Twilight 6:37 AM EDT 7:41 PM EDT
Nautical Twilight 6:04 AM EDT 8:14 PM EDT
Astronomical Twilight 5:30 AM EDT 8:48 PM EDT
Moon 11:45 AM EDT (3/19) 2:07 AM EDT (3/19)
Length of Visible Light 13h 03m
Length of Day
12h 06m
Waxing Crescent, 49% of the Moon is Illuminated
Mar 19
Waxing Crescent
Mar 19
First Quarter
Mar 27
Full
Apr 3
Last Quarter
Apr 10
New

Hourly Weather History & Observations

Time (EDT) Temp. Windchill Dew Point Humidity Pressure Visibility Wind Dir Wind Speed Gust Speed Precip Events Conditions
12:19 AM 28.0 °F 15.7 °F 23.0 °F 81% 29.93 in 5.0 mi ESE 17.3 mph 31.1 mph 0.00 in Snow Light Snow
12:53 AM 28.0 °F 16.1 °F 23.0 °F 81% 29.94 in 4.0 mi ESE 16.1 mph 31.1 mph 0.00 in Snow Light Snow
1:11 AM 27.0 °F 14.7 °F 23.0 °F 85% 29.91 in 1.8 mi SE 16.1 mph 26.5 mph 0.00 in Snow Light Snow
1:33 AM 27.0 °F 15.2 °F 23.0 °F 85% 29.90 in 3.0 mi SE 15.0 mph 27.6 mph 0.01 in Snow Light Snow
1:43 AM 27.0 °F 14.7 °F 23.0 °F 85% 29.89 in 2.5 mi ESE 16.1 mph 26.5 mph 0.01 in Snow Light Snow
1:53 AM 27.0 °F 14.7 °F 23.0 °F 85% 29.90 in 2.5 mi ESE 16.1 mph 25.3 mph 0.01 in Snow Light Snow
2:06 AM 27.0 °F 12.5 °F 23.0 °F 85% 29.88 in 4.0 mi ESE 23.0 mph 27.6 mph 0.00 in Snow Light Snow
2:50 AM 28.4 °F 14.7 °F 23.0 °F 80% 29.86 in 2.5 mi ESE 21.9 mph 32.2 mph 0.00 in Snow Light Snow
2:53 AM 28.0 °F 15.7 °F 23.0 °F 81% 29.87 in 2.5 mi ESE 17.3 mph 32.2 mph 0.00 in Snow Light Snow
2:58 AM 28.0 °F 14.9 °F 23.0 °F 81% 29.86 in 3.0 mi ESE 19.6 mph 31.1 mph 0.00 in Snow Light Snow
3:04 AM 28.0 °F 13.9 °F 23.0 °F 81% 29.86 in 2.5 mi ESE 23.0 mph 31.1 mph 0.00 in Snow Light Snow
3:12 AM 28.0 °F 14.6 °F 24.1 °F 85% 29.85 in 2.0 mi ESE 20.7 mph 31.1 mph 0.01 in Snow Light Snow
3:32 AM 28.0 °F 15.3 °F 24.1 °F 85% 29.83 in 1.0 mi ESE 18.4 mph 31.1 mph 0.01 in Snow Light Snow
3:53 AM 28.0 °F 16.1 °F 25.0 °F 88% 29.83 in 2.5 mi ESE 16.1 mph - 0.03 in Snow Light Snow
4:01 AM 28.9 °F 17.3 °F 24.1 °F 82% 29.82 in 1.8 mi ESE 16.1 mph 26.5 mph 0.01 in Snow Light Snow
4:09 AM 28.0 °F 15.7 °F 25.0 °F 88% 29.82 in 3.0 mi ESE 17.3 mph 26.5 mph 0.01 in Snow Light Snow
4:53 AM 28.9 °F 17.3 °F 24.1 °F 82% 29.83 in 6.0 mi ESE 16.1 mph 23.0 mph 0.01 in Snow Light Snow
5:32 AM 28.9 °F 18.2 °F 25.0 °F 85% 29.79 in 2.0 mi ESE 13.8 mph 24.2 mph 0.02 in Snow Light Snow
5:41 AM 28.9 °F 17.7 °F 26.1 °F 89% 29.80 in 1.5 mi ESE 15.0 mph 21.9 mph 0.03 in Snow Light Snow
5:53 AM 28.9 °F 18.2 °F 26.1 °F 89% 29.81 in 1.2 mi ESE 13.8 mph - 0.04 in Snow Light Snow
6:53 AM 28.9 °F 19.8 °F 26.1 °F 89% 29.80 in 1.2 mi ESE 10.4 mph - 0.04 in Snow Light Snow
7:27 AM 28.9 °F 21.1 °F 27.0 °F 92% 29.79 in 0.8 mi ESE 8.1 mph - 0.02 in Snow Light Snow
7:53 AM 28.9 °F 21.1 °F 27.0 °F 92% 29.82 in 0.8 mi ESE 8.1 mph - 0.03 in Snow Light Snow
8:24 AM 28.9 °F 18.6 °F 27.0 °F 92% 29.79 in 1.2 mi ESE 12.7 mph 18.4 mph 0.01 in Snow Light Snow
8:39 AM 28.9 °F 19.8 °F 27.0 °F 92% 29.80 in 0.5 mi ESE 10.4 mph - 0.02 in Fog , Snow Snow
8:48 AM 28.4 °F 18.5 °F 26.6 °F 93% 29.80 in 0.2 mi ESE 11.5 mph - 0.04 in Fog , Snow Heavy Snow
8:53 AM 28.9 °F 19.2 °F 27.0 °F 92% 29.82 in 0.2 mi ESE 11.5 mph - 0.04 in Fog , Snow Heavy Snow
9:33 AM 28.9 °F 19.2 °F 28.0 °F 96% 29.80 in 0.5 mi ESE 11.5 mph - 0.03 in Fog , Snow Snow
9:53 AM 30.0 °F 21.1 °F 28.0 °F 92% 29.80 in 0.5 mi ESE 10.4 mph - 0.04 in Fog , Snow Snow
10:13 AM 30.0 °F 20.5 °F 28.0 °F 92% 29.79 in 1.0 mi ESE 11.5 mph - 0.01 in Snow Light Snow
10:24 AM 30.0 °F 21.1 °F 28.0 °F 92% 29.79 in 2.5 mi SE 10.4 mph - 0.01 in Snow Light Snow
10:30 AM 30.0 °F 21.1 °F 28.0 °F 92% 29.79 in 3.0 mi SE 10.4 mph - 0.01 in Snow Light Snow
10:36 AM 30.0 °F 21.1 °F 28.0 °F 92% 29.78 in 2.5 mi ESE 10.4 mph - 0.01 in Snow Light Snow
10:53 AM 30.0 °F 21.7 °F 27.0 °F 88% 29.80 in 2.5 mi SE 9.2 mph - 0.01 in Snow Light Snow
11:07 AM 30.9 °F 21.7 °F 28.0 °F 89% 29.78 in 2.5 mi SE 11.5 mph - 0.00 in Snow Light Snow
11:53 AM 30.9 °F 21.7 °F 28.0 °F 89% 29.78 in 2.5 mi SE 11.5 mph - 0.00 in Snow Light Snow
12:01 PM 30.9 °F 21.2 °F 28.0 °F 89% 29.75 in 3.0 mi ESE 12.7 mph - 0.00 in Snow Light Snow
12:53 PM 32.0 °F 22.5 °F 28.0 °F 85% 29.75 in 9.0 mi ESE 12.7 mph - 0.00 in   Overcast
1:39 PM 32.0 °F 23.0 °F 28.9 °F 88% 29.72 in 2.0 mi ESE 11.5 mph - 0.00 in Snow Light Snow
1:46 PM 32.0 °F 23.0 °F 28.9 °F 88% 29.72 in 1.5 mi ESE 11.5 mph - 0.00 in Snow Light Snow
1:53 PM 32.0 °F 23.0 °F 28.9 °F 88% 29.73 in 1.2 mi ESE 11.5 mph - 0.00 in Snow Light Snow
2:20 PM 32.0 °F 23.0 °F 30.0 °F 92% 29.71 in 0.8 mi ESE 11.5 mph - 0.01 in Snow Light Snow
2:24 PM 32.0 °F 23.6 °F 30.0 °F 92% 29.71 in 0.8 mi ESE 10.4 mph - 0.01 in Snow Light Snow
2:32 PM 32.0 °F 23.6 °F 30.0 °F 92% 29.70 in 0.8 mi ESE 10.4 mph - 0.01 in Snow Light Snow
2:39 PM 32.0 °F 23.0 °F 30.0 °F 92% 29.70 in 1.0 mi ESE 11.5 mph - 0.01 in Snow Light Snow
2:53 PM 32.0 °F 24.8 °F 30.0 °F 92% 29.71 in 1.0 mi ESE 8.1 mph - 0.02 in Snow Light Snow
3:53 PM 33.1 °F 26.1 °F 30.0 °F 89% 29.71 in 1.0 mi East 8.1 mph - 0.00 in Snow Light Snow
4:00 PM 34.0 °F 28.8 °F 30.9 °F 89% 29.70 in 8.0 mi East 5.8 mph - 0.00 in   Overcast
4:33 PM 35.1 °F 28.6 °F 30.9 °F 85% 29.69 in 10.0 mi ESE 8.1 mph - 0.00 in   Mostly Cloudy
4:53 PM 35.1 °F 31.0 °F 30.9 °F 85% 29.71 in 10.0 mi East 4.6 mph - 0.00 in   Overcast
5:11 PM 34.0 °F - 30.0 °F 85% 29.70 in 2.5 mi Calm Calm - 0.00 in Snow Light Snow
5:15 PM 33.1 °F - 30.0 °F 89% 29.71 in 1.5 mi North - - 0.00 in Snow Light Snow
5:18 PM 32.0 °F 20.1 °F 28.9 °F 88% 29.71 in 0.8 mi NW 19.6 mph - 0.01 in Snow Light Snow
5:24 PM 32.0 °F 21.2 °F 28.9 °F 88% 29.72 in 0.5 mi WNW 16.1 mph - 0.01 in Fog , Snow Light Snow
5:28 PM 32.0 °F 21.6 °F 28.9 °F 88% 29.72 in 1.0 mi WNW 15.0 mph - 0.01 in Snow Light Snow
5:53 PM 30.9 °F 20.2 °F 28.0 °F 89% 29.76 in 1.2 mi WNW 15.0 mph - 0.01 in Snow Light Snow
6:14 PM 30.9 °F 21.7 °F 28.0 °F 89% 29.76 in 0.8 mi WNW 11.5 mph - 0.00 in Snow Light Snow
6:27 PM 30.0 °F 17.5 °F 27.0 °F 88% 29.77 in 0.5 mi WNW 19.6 mph - 0.00 in Fog , Snow Snow
6:44 PM 28.9 °F 16.1 °F 27.0 °F 92% 29.78 in 0.5 mi WNW 19.6 mph - 0.00 in Fog , Snow Snow
6:53 PM 28.9 °F 16.9 °F 27.0 °F 92% 29.80 in 0.5 mi WNW 17.3 mph - 0.00 in Fog , Snow Snow
7:15 PM 28.9 °F 20.4 °F 27.0 °F 92% 29.80 in 0.8 mi WNW 9.2 mph - 0.00 in Snow Light Snow
7:20 PM 28.9 °F 20.4 °F 27.0 °F 92% 29.80 in 2.0 mi WNW 9.2 mph - 0.00 in Snow Light Snow
7:28 PM 28.9 °F 21.9 °F 27.0 °F 92% 29.80 in 4.0 mi WNW 6.9 mph - 0.00 in Snow Light Snow
7:36 PM 28.9 °F 21.1 °F 27.0 °F 92% 29.80 in 6.0 mi WNW 8.1 mph - 0.00 in   Overcast
7:53 PM 28.0 °F 20.8 °F 26.1 °F 92% 29.83 in 8.0 mi West 6.9 mph - 0.00 in   Overcast
8:53 PM 28.0 °F 18.6 °F 21.0 °F 75% 29.84 in 10.0 mi West 10.4 mph - 0.00 in   Overcast
9:53 PM 25.0 °F 16.3 °F 17.1 °F 72% 29.84 in 10.0 mi WNW 8.1 mph - N/A   Mostly Cloudy
10:53 PM 27.0 °F 18.0 °F 17.1 °F 66% 29.83 in 10.0 mi West 9.2 mph - N/A   Overcast
11:53 PM 25.0 °F 18.1 °F 19.0 °F 78% 29.83 in 10.0 mi NW 5.8 mph - N/A   Overcast